createdAt,value
2023-08-19T00:01:29.348Z,24.80
2023-08-19T00:03:56.521Z,24.80
2023-08-19T00:06:37.018Z,24.80
2023-08-19T00:09:05.682Z,24.90
2023-08-19T00:11:33.341Z,24.90
2023-08-19T00:14:00.570Z,24.90
2023-08-19T00:16:27.937Z,24.90
2023-08-19T00:18:56.658Z,24.90
2023-08-19T00:21:23.817Z,24.90
2023-08-19T00:23:51.496Z,24.90
2023-08-19T00:26:18.595Z,24.90
2023-08-19T00:28:46.165Z,24.90
2023-08-19T00:31:13.406Z,24.90
2023-08-19T00:33:40.584Z,24.90
2023-08-19T00:36:08.176Z,24.90
2023-08-19T00:38:35.224Z,24.90
2023-08-19T00:41:04.577Z,25.00
2023-08-19T00:43:32.679Z,24.90
2023-08-19T00:45:59.904Z,25.00
2023-08-19T00:48:27.051Z,24.90
2023-08-19T00:50:54.919Z,24.90
2023-08-19T00:53:22.088Z,25.00
2023-08-19T00:55:49.846Z,24.90
2023-08-19T00:58:16.876Z,24.90
2023-08-19T01:00:44.437Z,24.90
2023-08-19T01:03:11.633Z,25.00
2023-08-19T01:05:47.647Z,24.90
2023-08-19T01:08:18.956Z,24.90
2023-08-19T01:11:12.353Z,24.90
2023-08-19T01:13:45.656Z,24.90
2023-08-19T01:16:22.178Z,24.90
2023-08-19T01:18:49.672Z,24.90
2023-08-19T01:21:17.378Z,24.90
2023-08-19T01:23:45.201Z,24.90
2023-08-19T01:26:12.393Z,24.90
2023-08-19T01:28:39.620Z,24.90
2023-08-19T01:31:06.760Z,24.80
2023-08-19T01:33:33.931Z,24.90
2023-08-19T01:36:19.890Z,24.90
2023-08-19T01:38:57.616Z,24.90
2023-08-19T01:41:24.756Z,24.80
2023-08-19T01:43:52.312Z,24.80
2023-08-19T01:46:19.514Z,24.90
2023-08-19T01:48:46.621Z,24.90
2023-08-19T01:51:13.670Z,24.90
2023-08-19T01:53:40.908Z,24.80
2023-08-19T01:56:07.883Z,24.80
2023-08-19T01:58:35.196Z,24.80
2023-08-19T02:01:02.275Z,24.90
2023-08-19T02:03:29.385Z,24.80
2023-08-19T02:05:56.457Z,24.80
2023-08-19T02:08:23.711Z,24.80
2023-08-19T02:10:51.044Z,24.80
2023-08-19T02:13:18.188Z,24.80
2023-08-19T02:15:45.268Z,24.80
2023-08-19T02:18:12.408Z,24.80
2023-08-19T02:20:39.537Z,24.80
2023-08-19T02:23:06.632Z,24.80
2023-08-19T02:25:33.768Z,24.80
2023-08-19T02:28:00.880Z,24.80
2023-08-19T02:30:27.925Z,24.70
2023-08-19T02:32:54.953Z,24.70
2023-08-19T02:35:21.989Z,24.70
2023-08-19T02:37:49.307Z,24.70
2023-08-19T02:40:16.523Z,24.70
2023-08-19T02:42:43.807Z,24.70
2023-08-19T02:45:11.501Z,24.60
2023-08-19T02:47:38.616Z,24.60
2023-08-19T02:50:06.803Z,24.70
2023-08-19T02:52:34.064Z,24.60
2023-08-19T02:55:01.247Z,24.60
2023-08-19T02:57:28.310Z,24.60
2023-08-19T02:59:56.543Z,24.60
2023-08-19T03:02:23.718Z,24.60
2023-08-19T03:04:52.121Z,24.60
2023-08-19T03:07:19.272Z,24.60
2023-08-19T03:09:46.440Z,24.60
2023-08-19T03:12:13.583Z,24.50
2023-08-19T03:14:40.706Z,24.60
2023-08-19T03:17:07.755Z,24.60
2023-08-19T03:19:34.779Z,24.50
2023-08-19T03:22:01.769Z,24.60
2023-08-19T03:24:29.111Z,24.50
2023-08-19T03:26:56.231Z,24.60
2023-08-19T03:29:24.543Z,24.60
2023-08-19T03:31:51.614Z,24.50
2023-08-19T03:34:18.638Z,24.60
2023-08-19T03:36:45.678Z,24.50
2023-08-19T03:39:12.710Z,24.50
2023-08-19T03:41:39.880Z,24.50
2023-08-19T03:44:07.039Z,24.50
2023-08-19T03:46:34.105Z,24.50
2023-08-19T03:49:01.250Z,24.50
2023-08-19T03:51:29.638Z,24.50
2023-08-19T03:53:56.653Z,24.50
2023-08-19T03:56:24.017Z,24.50
2023-08-19T03:58:51.040Z,24.40
2023-08-19T04:01:18.269Z,24.50
2023-08-19T04:03:45.673Z,24.50
2023-08-19T04:06:13.462Z,24.50
2023-08-19T04:08:40.483Z,24.40
2023-08-19T04:11:08.457Z,24.50
2023-08-19T04:13:35.591Z,24.50
2023-08-19T04:16:06.786Z,24.40
2023-08-19T04:18:34.380Z,24.40
2023-08-19T04:21:05.343Z,24.50
2023-08-19T04:23:33.204Z,24.40
2023-08-19T04:26:00.248Z,24.40
2023-08-19T04:28:28.104Z,24.40
2023-08-19T04:31:04.361Z,24.50
2023-08-19T04:33:31.988Z,24.50
2023-08-19T04:35:59.099Z,24.40
2023-08-19T04:38:26.240Z,24.50
2023-08-19T04:40:53.394Z,24.40
2023-08-19T04:43:20.720Z,24.40
2023-08-19T04:45:48.010Z,24.40
2023-08-19T04:48:15.951Z,24.40
2023-08-19T04:50:43.226Z,24.40
2023-08-19T04:53:11.059Z,24.40
2023-08-19T04:55:38.322Z,24.40
2023-08-19T04:58:05.559Z,24.40
2023-08-19T05:00:32.657Z,24.40
2023-08-19T05:02:59.947Z,24.40
2023-08-19T05:05:27.424Z,24.40
2023-08-19T05:07:54.540Z,24.40
2023-08-19T05:10:21.780Z,24.40
2023-08-19T05:12:48.897Z,24.40
2023-08-19T05:15:16.119Z,24.40
2023-08-19T05:17:43.240Z,24.40
2023-08-19T05:20:14.115Z,24.40
2023-08-19T05:22:41.305Z,24.40
2023-08-19T05:25:10.092Z,24.40
2023-08-19T05:27:37.321Z,24.40
2023-08-19T05:30:05.919Z,24.40
2023-08-19T05:32:32.995Z,24.40
2023-08-19T05:35:00.172Z,24.50
2023-08-19T05:37:27.837Z,24.40
2023-08-19T05:39:55.019Z,24.50
2023-08-19T05:42:22.044Z,24.50
2023-08-19T05:44:49.229Z,24.50
2023-08-19T05:47:16.737Z,24.50
2023-08-19T05:49:43.989Z,24.50
2023-08-19T05:52:11.178Z,24.50
2023-08-19T05:54:38.286Z,24.50
2023-08-19T05:57:05.442Z,24.60
2023-08-19T05:59:32.484Z,24.60
2023-08-19T06:01:59.463Z,24.60
2023-08-19T06:04:26.787Z,24.60
2023-08-19T06:06:55.224Z,24.60
2023-08-19T06:09:22.975Z,24.60
2023-08-19T06:11:51.127Z,24.70
2023-08-19T06:14:19.062Z,24.70
2023-08-19T06:16:46.457Z,24.70
2023-08-19T06:19:14.009Z,24.80
2023-08-19T06:21:41.281Z,24.80
2023-08-19T06:24:08.461Z,24.90
2023-08-19T06:26:35.561Z,25.10
2023-08-19T06:29:02.582Z,25.20
2023-08-19T06:31:29.777Z,25.30
2023-08-19T06:33:57.013Z,25.40
2023-08-19T06:36:25.116Z,25.50
2023-08-19T06:38:59.731Z,25.50
2023-08-19T06:41:26.926Z,25.60
2023-08-19T06:43:54.694Z,25.60
2023-08-19T06:46:21.877Z,25.70
2023-08-19T06:48:49.603Z,25.70
2023-08-19T06:51:17.620Z,25.70
2023-08-19T06:53:44.872Z,25.80
2023-08-19T06:56:21.709Z,25.80
2023-08-19T06:58:56.179Z,25.80
2023-08-19T07:01:24.157Z,25.80
2023-08-19T07:03:55.709Z,25.90
2023-08-19T07:06:23.314Z,26.00
2023-08-19T07:08:51.284Z,26.00
2023-08-19T07:11:18.556Z,26.10
2023-08-19T07:13:46.037Z,26.10
2023-08-19T07:16:13.786Z,26.20
2023-08-19T07:18:48.469Z,26.20
2023-08-19T07:21:16.656Z,26.30
2023-08-19T07:23:46.181Z,26.30
2023-08-19T07:26:14.080Z,26.30
2023-08-19T07:28:41.202Z,26.30
2023-08-19T07:31:10.644Z,26.40
2023-08-19T07:33:37.869Z,26.40
2023-08-19T07:36:05.084Z,26.50
2023-08-19T07:38:32.537Z,26.50
2023-08-19T07:40:59.578Z,26.50
2023-08-19T07:43:26.769Z,26.50
2023-08-19T07:45:53.961Z,26.50
2023-08-19T07:48:21.053Z,26.40
2023-08-19T07:50:48.449Z,26.40
2023-08-19T07:53:15.537Z,26.40
2023-08-19T07:55:43.037Z,26.40
2023-08-19T07:58:11.210Z,26.40
2023-08-19T08:00:38.465Z,26.40
2023-08-19T08:03:05.750Z,26.50
2023-08-19T08:05:32.914Z,26.60
2023-08-19T08:08:00.475Z,26.60
2023-08-19T08:10:27.629Z,26.60
2023-08-19T08:12:54.769Z,26.70
2023-08-19T08:15:21.817Z,26.70
2023-08-19T08:17:49.104Z,26.80
2023-08-19T08:20:16.338Z,26.90
2023-08-19T08:22:43.427Z,26.90
2023-08-19T08:25:13.391Z,26.90
2023-08-19T08:27:40.586Z,27.00
2023-08-19T08:30:07.952Z,27.10
2023-08-19T08:32:35.432Z,27.10
2023-08-19T08:35:02.787Z,27.10
2023-08-19T08:37:29.856Z,27.10
2023-08-19T08:39:57.114Z,27.10
2023-08-19T08:42:24.711Z,27.20
2023-08-19T08:44:51.945Z,27.10
2023-08-19T08:47:20.605Z,27.10
2023-08-19T08:49:47.934Z,27.20
2023-08-19T08:52:15.053Z,27.20
2023-08-19T08:54:44.011Z,27.20
2023-08-19T08:57:11.108Z,27.20
2023-08-19T08:59:38.230Z,27.30
2023-08-19T09:02:06.561Z,27.30
2023-08-19T09:04:34.083Z,27.40
2023-08-19T09:07:11.262Z,27.50
2023-08-19T09:09:41.152Z,27.70
2023-08-19T09:12:12.080Z,27.80
2023-08-19T09:14:43.452Z,28.00
2023-08-19T09:17:14.043Z,27.90
2023-08-19T09:19:41.181Z,27.90
2023-08-19T09:22:11.557Z,28.00
2023-08-19T09:24:38.563Z,27.90
2023-08-19T09:27:06.429Z,27.90
2023-08-19T09:29:34.425Z,27.90
2023-08-19T09:32:01.796Z,27.90
2023-08-19T09:34:29.246Z,28.00
2023-08-19T09:36:56.619Z,28.00
2023-08-19T09:39:27.211Z,28.10
2023-08-19T09:42:00.130Z,28.20
2023-08-19T09:44:30.796Z,28.30
2023-08-19T09:46:58.195Z,28.40
2023-08-19T09:49:25.319Z,28.40
2023-08-19T09:51:58.674Z,28.30
2023-08-19T09:54:26.584Z,28.30
2023-08-19T09:56:54.923Z,28.30
2023-08-19T09:59:22.461Z,28.30
2023-08-19T10:01:50.514Z,28.20
2023-08-19T10:04:17.659Z,28.20
2023-08-19T10:06:46.662Z,28.20
2023-08-19T10:09:17.302Z,28.10
2023-08-19T10:11:44.959Z,28.10
2023-08-19T10:14:12.850Z,28.10
2023-08-19T10:16:43.280Z,28.10
2023-08-19T10:19:15.926Z,28.10
2023-08-19T10:21:43.896Z,28.10
2023-08-19T10:24:11.176Z,28.10
2023-08-19T10:26:39.327Z,28.10
2023-08-19T10:29:07.500Z,28.10
2023-08-19T10:31:35.543Z,28.10
2023-08-19T10:34:15.049Z,28.10
2023-08-19T10:36:42.114Z,28.10
2023-08-19T10:39:18.420Z,28.00
2023-08-19T10:41:45.585Z,28.00
2023-08-19T10:44:13.884Z,27.90
2023-08-19T10:46:41.927Z,27.90
2023-08-19T10:49:12.573Z,27.80
2023-08-19T10:51:46.433Z,27.70
2023-08-19T10:54:13.561Z,27.60
2023-08-19T10:57:13.184Z,27.60
2023-08-19T10:59:42.268Z,27.50
2023-08-19T11:02:10.058Z,27.40
2023-08-19T11:04:41.802Z,27.30
2023-08-19T11:07:09.386Z,27.20
2023-08-19T11:09:36.629Z,27.20
2023-08-19T11:12:04.344Z,27.20
2023-08-19T11:14:31.419Z,27.10
2023-08-19T11:16:59.149Z,27.10
2023-08-19T11:19:26.283Z,27.10
2023-08-19T11:21:53.683Z,27.10
2023-08-19T11:24:21.003Z,27.10
2023-08-19T11:26:50.291Z,27.20
2023-08-19T11:29:17.954Z,27.20
2023-08-19T11:31:45.118Z,27.20
2023-08-19T11:34:13.654Z,27.30
2023-08-19T11:36:41.863Z,27.40
2023-08-19T11:39:11.973Z,27.50
2023-08-19T11:41:40.647Z,27.70
2023-08-19T11:44:08.200Z,27.70
2023-08-19T11:46:36.848Z,27.80
2023-08-19T11:49:08.023Z,27.90
2023-08-19T11:51:37.859Z,27.90
2023-08-19T11:54:06.219Z,27.90
2023-08-19T11:56:49.573Z,27.90
2023-08-19T11:59:17.072Z,27.90
2023-08-19T12:01:46.777Z,27.80
2023-08-19T12:04:19.568Z,27.70
2023-08-19T12:06:48.474Z,27.60
2023-08-19T12:09:19.334Z,27.50
2023-08-19T12:11:49.867Z,27.50
2023-08-19T12:14:17.168Z,27.40
2023-08-19T12:16:44.251Z,27.40
2023-08-19T12:19:11.290Z,27.30
2023-08-19T12:21:38.358Z,27.30
2023-08-19T12:24:05.666Z,27.30
2023-08-19T12:26:32.838Z,27.20
2023-08-19T12:28:59.970Z,27.20
2023-08-19T12:31:27.881Z,27.10
2023-08-19T12:33:54.984Z,27.00
2023-08-19T12:36:22.083Z,26.90
2023-08-19T12:38:49.238Z,26.80
2023-08-19T12:41:16.481Z,26.80
2023-08-19T12:43:43.583Z,26.70
2023-08-19T12:46:11.495Z,26.60
2023-08-19T12:48:39.558Z,26.60
2023-08-19T12:51:06.600Z,26.50
2023-08-19T12:53:33.653Z,26.80
2023-08-19T12:56:00.757Z,27.10
2023-08-19T12:58:27.906Z,27.40
2023-08-19T13:00:54.986Z,27.50
2023-08-19T13:03:22.490Z,27.50
2023-08-19T13:05:49.608Z,27.50
2023-08-19T13:08:16.657Z,27.50
2023-08-19T13:10:43.709Z,27.50
2023-08-19T13:13:10.806Z,27.50
2023-08-19T13:15:38.059Z,27.40
2023-08-19T13:18:05.363Z,27.40
2023-08-19T13:20:32.718Z,27.40
2023-08-19T13:22:59.956Z,27.40
2023-08-19T13:25:29.380Z,27.40
2023-08-19T13:27:56.476Z,27.30
2023-08-19T13:30:23.837Z,27.30
2023-08-19T13:32:50.934Z,27.30
2023-08-19T13:35:18.135Z,27.30
2023-08-19T13:37:45.211Z,27.40
2023-08-19T13:40:12.646Z,27.50
2023-08-19T13:42:40.094Z,27.50
2023-08-19T13:45:08.691Z,27.70
2023-08-19T13:47:36.595Z,27.80
2023-08-19T13:50:07.205Z,27.90
2023-08-19T13:52:38.527Z,28.00
2023-08-19T13:55:07.546Z,28.10
2023-08-19T13:57:35.602Z,28.20
2023-08-19T14:00:05.215Z,28.40
2023-08-19T14:02:32.280Z,28.60
2023-08-19T14:04:59.411Z,28.90
2023-08-19T14:07:26.442Z,29.10
2023-08-19T14:09:53.526Z,29.30
2023-08-19T14:12:20.773Z,29.50
2023-08-19T14:14:47.911Z,29.80
2023-08-19T14:17:14.974Z,29.90
2023-08-19T14:19:42.019Z,30.10
2023-08-19T14:22:09.154Z,30.00
2023-08-19T14:24:36.311Z,30.00
2023-08-19T14:27:05.002Z,30.10
2023-08-19T14:29:32.732Z,30.10
2023-08-19T14:32:02.176Z,30.10
2023-08-19T14:34:31.449Z,30.10
2023-08-19T14:36:59.730Z,30.20
2023-08-19T14:39:26.776Z,30.40
2023-08-19T14:41:53.827Z,30.50
2023-08-19T14:44:20.887Z,30.60
2023-08-19T14:46:47.953Z,30.70
2023-08-19T14:49:15.268Z,30.90
2023-08-19T14:51:42.304Z,30.90
2023-08-19T14:54:09.370Z,30.90
2023-08-19T14:56:36.450Z,31.10
2023-08-19T14:59:04.274Z,31.00
2023-08-19T15:01:32.071Z,31.10
2023-08-19T15:04:02.362Z,31.20
2023-08-19T15:06:29.533Z,31.20
2023-08-19T15:08:57.047Z,31.10
2023-08-19T15:11:24.322Z,31.10
2023-08-19T15:13:51.493Z,31.30
2023-08-19T15:16:18.762Z,31.30
2023-08-19T15:18:46.165Z,31.20
2023-08-19T15:21:13.334Z,31.20
2023-08-19T15:23:40.568Z,31.20
2023-08-19T15:26:07.613Z,31.20
2023-08-19T15:28:34.986Z,31.30
2023-08-19T15:31:02.135Z,31.10
2023-08-19T15:33:29.200Z,31.20
2023-08-19T15:35:56.324Z,31.30
2023-08-19T15:38:23.476Z,31.40
2023-08-19T15:40:50.551Z,31.30
2023-08-19T15:43:17.797Z,31.30
2023-08-19T15:45:44.985Z,31.40
2023-08-19T15:48:12.115Z,31.40
2023-08-19T15:50:39.204Z,31.40
2023-08-19T15:53:06.356Z,31.40
2023-08-19T15:55:33.430Z,31.40
2023-08-19T15:58:00.551Z,31.40
2023-08-19T16:00:28.062Z,31.60
2023-08-19T16:02:55.229Z,31.60
2023-08-19T16:05:22.548Z,31.60
2023-08-19T16:07:49.961Z,31.50
2023-08-19T16:10:17.043Z,31.50
2023-08-19T16:12:44.154Z,31.60
2023-08-19T16:15:11.365Z,31.60
2023-08-19T16:17:38.722Z,31.60
2023-08-19T16:20:06.044Z,31.60
2023-08-19T16:22:33.113Z,31.60
2023-08-19T16:25:00.845Z,31.70
2023-08-19T16:27:28.005Z,31.70
2023-08-19T16:29:55.973Z,31.70
2023-08-19T16:32:23.012Z,31.80
2023-08-19T16:34:50.063Z,31.90
2023-08-19T16:37:17.208Z,31.90
2023-08-19T16:39:44.644Z,31.90
2023-08-19T16:42:11.939Z,31.90
2023-08-19T16:44:39.824Z,31.90
2023-08-19T16:47:07.246Z,31.90
2023-08-19T16:49:34.306Z,31.90
2023-08-19T16:52:01.446Z,31.80
2023-08-19T16:54:28.817Z,31.80
2023-08-19T16:56:55.865Z,31.80
2023-08-19T16:59:23.015Z,31.80
2023-08-19T17:01:50.094Z,31.90
2023-08-19T17:04:18.208Z,31.90
2023-08-19T17:09:24.623Z,31.90
2023-08-19T17:11:51.740Z,31.90
2023-08-19T17:14:19.103Z,31.90
2023-08-19T17:16:46.363Z,31.80
2023-08-19T17:19:13.594Z,31.80
2023-08-19T17:21:41.114Z,31.80
2023-08-19T17:24:08.568Z,31.80
2023-08-19T17:26:35.690Z,31.80
2023-08-19T17:29:03.996Z,31.80
2023-08-19T17:31:33.354Z,31.70
2023-08-19T17:34:00.494Z,31.70
2023-08-19T17:36:27.755Z,31.60
2023-08-19T17:38:54.806Z,31.50
2023-08-19T17:46:54.234Z,31.10
2023-08-19T17:52:12.760Z,30.80
2023-08-19T17:54:39.938Z,30.80
2023-08-19T17:57:07.081Z,30.80
2023-08-19T18:02:06.834Z,30.60
2023-08-19T18:04:34.003Z,30.50
2023-08-19T18:07:01.319Z,30.30
2023-08-19T18:09:28.498Z,30.20
2023-08-19T18:11:55.617Z,30.00
2023-08-19T18:14:24.620Z,29.80
2023-08-19T18:16:51.999Z,29.60
2023-08-19T18:19:35.515Z,29.40
2023-08-19T18:22:02.790Z,29.10
2023-08-19T18:24:35.542Z,29.00
2023-08-19T18:27:02.613Z,28.70
2023-08-19T18:29:29.644Z,28.50
2023-08-19T18:32:00.063Z,28.20
2023-08-19T18:34:27.220Z,27.90
2023-08-19T18:36:54.389Z,27.70
2023-08-19T18:39:22.855Z,27.50
2023-08-19T18:41:49.899Z,27.40
2023-08-19T18:44:16.919Z,27.30
2023-08-19T18:46:44.024Z,27.00
2023-08-19T18:49:11.148Z,26.70
2023-08-19T18:51:38.290Z,26.60
2023-08-19T18:54:05.644Z,26.50
2023-08-19T18:56:32.799Z,26.40
2023-08-19T18:59:00.381Z,26.20
2023-08-19T19:01:27.590Z,26.10
2023-08-19T19:03:57.195Z,26.00
2023-08-19T19:06:24.369Z,26.00
2023-08-19T19:08:51.399Z,25.90
2023-08-19T19:11:18.482Z,25.70
2023-08-19T19:13:45.715Z,25.50
2023-08-19T19:16:12.994Z,25.30
2023-08-19T19:18:40.202Z,25.20
2023-08-19T19:21:07.368Z,25.10
2023-08-19T19:23:34.397Z,25.10
2023-08-19T19:26:03.275Z,25.00
2023-08-19T19:28:30.955Z,24.90
2023-08-19T19:30:58.067Z,24.80
2023-08-19T19:33:25.383Z,24.70
2023-08-19T19:35:52.516Z,24.60
2023-08-19T19:38:19.653Z,24.50
2023-08-19T19:40:46.813Z,24.40
2023-08-19T19:43:14.056Z,24.40
2023-08-19T19:45:42.716Z,24.30
2023-08-19T19:48:11.310Z,24.30
2023-08-19T19:50:38.466Z,24.20
2023-08-19T19:53:05.620Z,24.10
2023-08-19T19:55:32.900Z,24.00
2023-08-19T19:58:00.036Z,24.00
2023-08-19T20:00:29.924Z,23.90
2023-08-19T20:02:57.621Z,23.90
2023-08-19T20:05:24.845Z,23.90
2023-08-19T20:07:52.005Z,23.90
2023-08-19T20:10:27.374Z,23.90
2023-08-19T20:12:56.383Z,23.70
2023-08-19T20:15:25.141Z,23.70
2023-08-19T20:17:54.107Z,23.60
2023-08-19T20:20:21.659Z,23.50
2023-08-19T20:22:52.333Z,23.50
2023-08-19T20:25:19.666Z,23.40
2023-08-19T20:27:47.028Z,23.40
2023-08-19T20:30:14.180Z,23.40
2023-08-19T20:32:42.522Z,23.40
2023-08-19T20:35:09.797Z,23.40
2023-08-19T20:37:37.082Z,23.30
2023-08-19T20:40:05.642Z,23.20
2023-08-19T20:42:32.762Z,23.20
2023-08-19T20:45:00.254Z,23.20
2023-08-19T20:47:27.365Z,23.10
2023-08-19T20:49:54.324Z,23.10
2023-08-19T20:52:21.701Z,23.00
2023-08-19T20:54:49.019Z,23.00
2023-08-19T20:57:16.109Z,22.90
2023-08-19T20:59:43.228Z,22.90
2023-08-19T21:02:10.490Z,22.80
2023-08-19T21:04:37.593Z,22.80
2023-08-19T21:07:05.018Z,22.80
2023-08-19T21:09:32.147Z,22.80
2023-08-19T21:11:59.262Z,22.80
2023-08-19T21:14:26.346Z,22.70
2023-08-19T21:16:53.380Z,22.70
2023-08-19T21:19:20.501Z,22.70
2023-08-19T21:21:47.577Z,22.70
2023-08-19T21:24:14.804Z,22.60
2023-08-19T21:26:41.853Z,22.60
2023-08-19T21:29:09.030Z,22.50
2023-08-19T21:31:36.316Z,22.50
2023-08-19T21:34:03.516Z,22.50
2023-08-19T21:36:30.754Z,22.50
2023-08-19T21:38:57.904Z,22.40
2023-08-19T21:41:24.990Z,22.40
2023-08-19T21:43:52.530Z,22.40
2023-08-19T21:46:19.707Z,22.40
2023-08-19T21:48:48.038Z,22.30
2023-08-19T21:51:15.414Z,22.30
2023-08-19T21:53:43.057Z,22.30
2023-08-19T21:56:10.137Z,22.10
2023-08-19T21:58:37.178Z,22.10
2023-08-19T22:01:04.370Z,22.10
2023-08-19T22:03:31.573Z,22.10
2023-08-19T22:05:58.639Z,22.10
2023-08-19T22:08:25.747Z,22.10
2023-08-19T22:10:52.795Z,22.10
2023-08-19T22:13:19.888Z,22.10
2023-08-19T22:15:46.999Z,22.10
2023-08-19T22:18:14.619Z,22.10
2023-08-19T22:20:50.864Z,22.10
2023-08-19T22:23:19.261Z,22.10
2023-08-19T22:25:47.976Z,22.10
2023-08-19T22:28:15.031Z,22.00
2023-08-19T22:30:42.512Z,22.00
2023-08-19T22:33:10.002Z,22.00
2023-08-19T22:35:37.282Z,22.00
2023-08-19T22:38:04.574Z,22.00
2023-08-19T22:40:33.857Z,21.90
2023-08-19T22:43:01.134Z,22.00
2023-08-19T22:45:28.321Z,21.90
2023-08-19T22:47:55.489Z,21.90
2023-08-19T22:50:22.698Z,21.90
2023-08-19T22:52:50.734Z,21.90
2023-08-19T22:55:18.119Z,21.90
2023-08-19T22:57:46.558Z,21.80
2023-08-19T23:00:13.929Z,21.90
2023-08-19T23:02:41.361Z,21.80
2023-08-19T23:05:09.381Z,21.80
2023-08-19T23:07:36.951Z,21.80
2023-08-19T23:10:04.972Z,21.80
2023-08-19T23:12:32.108Z,21.80
2023-08-19T23:14:59.258Z,21.80
2023-08-19T23:17:26.344Z,21.80
2023-08-19T23:19:53.623Z,21.70
2023-08-19T23:22:26.545Z,21.70
2023-08-19T23:24:53.693Z,21.60
2023-08-19T23:27:20.881Z,21.60
2023-08-19T23:29:48.404Z,21.60
2023-08-19T23:32:15.683Z,21.60
2023-08-19T23:34:42.873Z,21.50
2023-08-19T23:37:10.279Z,21.40
2023-08-19T23:39:37.538Z,21.40
2023-08-19T23:42:04.704Z,21.30
2023-08-19T23:44:32.332Z,21.30
2023-08-19T23:46:59.558Z,21.10
2023-08-19T23:49:26.800Z,21.10
2023-08-19T23:51:56.333Z,21.10
2023-08-19T23:54:23.592Z,20.90
2023-08-19T23:56:50.843Z,20.80
2023-08-19T23:59:18.095Z,20.80
